Main page
METAR-TAF:

METAR-TAF

Airports :

Bobo-Dioulasso, Burkina Faso

Bobo Dioulasso Airport

latitude: 11-10N, longitude: 004-19W, elevation: 460 m

Current weather observation

The report was made 39 minutes ago, at 21:00 UTC
Wind 4 kt from the North/Northeast
Temperature 27°C
Humidity 32%
Pressure 1014 hPa
Visibility: 6000 m

METAR: DFOO 232100Z 02004KT 6000 NSC 27/09 Q1014

Time: 21:39 (21:39 UTC)

Forecast

The report was made 4 hours and 39 minutes ago, at 17:00 UTC
Forecast valid from 23 at 18 UTC to 24 at 18 UTC
Wind 10 kt from the East
Visibility: 8000 m
Temporary
from 23 at 18 UTC to 23 at 20 UTC
Visibility: 4000 m
widespread dust
Temporary
from 24 at 06 UTC to 24 at 10 UTC
Visibility: 3500 m
widespread dust

TAF: DFOO 231700Z 2318/2418 08010KT 8000 NSC TEMPO 2318/2320 4000 DU TEMPO 2406/2410 3500 DU

Weather observations and forecasts of more than 4000 airports (METAR and TAF reports).

The available stations are represented by yellow and red dots on the map.

Hover mouse over dot to see the name of the station.

Then click to see weather observations and forecasts.

To change the map : click on the green buttons with a black cross to zoom in, on the green button with a dash to zoom out, or on the green arrows for adjacent maps.


METAR-TAF: